• Join FlightAware (Why Join?)
  • Login
  • US Flag 
11:41AM EDT


 

Airport Tracker/Info


-or-


 

Live Flight TrackerFlight Track Log ✈ UAL5863 ✈ 26-Apr-2013 ✈ CYQB - KORD

Flight Track Log - Related Links

Times and Time Zones

All times are in EDT time to prevent confusion due to time zone crossing. See the UAL5863 flight status page for this flight to view local times or setup timezone preferences in your user account.

Time Position Orientation Groundspeed Altitude Reporting Facility
EDT Latitude Longitude Course Direction KTS MPH feet Rate Location/Type
08:29AM 46.8000 -71.3500 248° West 150 173 1,200  Level Montreal Center
08:30AM 46.8000 -71.2833 90° East 180 207 3,300 1,920 Climbing Montreal Center
08:31AM 46.7667 -71.2667 161° South 210 242 5,100 1,800 Climbing Montreal Center
08:32AM 46.7333 -71.3667 244° Southwest 250 288 6,900 1,860 Climbing Montreal Center
08:33AM 46.5853 -72.2376 249° West  Level FlightAware Approximate
08:33AM 46.7167 -71.4667 256° West 260 299 8,900  Level Montreal Center
08:34AM 46.5471 -72.3781 248° West  Level FlightAware Approximate
08:34AM 46.7167 -71.5667 270° West 270 311 10,700  Level Montreal Center
08:35AM 46.6833 -71.6833 247° West 310 357 11,700 1,020 Climbing Montreal Center
08:36AM 46.6500 -71.8167 250° West 330 380 12,800 1,080 Climbing Montreal Center
08:37AM 46.6167 -71.9667 252° West 340 391 13,900 1,140 Climbing Montreal Center
08:38AM 46.6167 -72.0833 270° West 350 403 15,100 1,200 Climbing Montreal Center
08:39AM 46.5833 -72.2333 252° West 350 403 16,300 1,200 Climbing Montreal Center
08:40AM 46.5500 -72.3500 247° West 350 403 17,500 900 Climbing Montreal Center
08:41AM 46.5333 -72.5000 261° West 350 403 18,200 900 Climbing Montreal Center
08:42AM 46.5000 -72.6333 250° West 350 403 19,400 1,200 Climbing Montreal Center
08:43AM 46.4667 -72.7833 252° West 360 414 20,700 1,200 Climbing Montreal Center
08:44AM 46.4333 -72.9167 250° West 360 414 21,800 1,140 Climbing Montreal Center
08:45AM 46.4000 -73.0500 250° West 360 414 23,000 1,140 Climbing Montreal Center
08:46AM 46.3833 -73.2000 261° West 360 414 24,100 1,020 Climbing Montreal Center
08:47AM 46.3500 -73.3167 248° West 360 414 25,100 960 Climbing Montreal Center
08:48AM 46.3167 -73.4667 252° West 360 414 26,100 900 Climbing Montreal Center
08:49AM 46.3000 -73.6167 261° West 360 414 26,900 840 Climbing Montreal Center
08:50AM 46.2667 -73.7667 252° West 360 414 27,800 840 Climbing Montreal Center
08:51AM 46.2500 -73.8833 258° West 360 414 28,600 840 Climbing Montreal Center
08:52AM 46.2000 -74.0333 244° Southwest 370 426 29,500 900 Climbing Montreal Center
08:53AM 46.1500 -74.1500 238° Southwest 370 426 30,500 1,080 Climbing Montreal Center
08:54AM 46.1000 -74.3000 244° Southwest 360 414 31,700 1,200 Climbing Montreal Center
08:55AM 46.0500 -74.4167 238° Southwest 360 414 32,900 1,080 Climbing Montreal Center
08:56AM 46.0167 -74.5500 250° West 350 403 33,900 1,020 Climbing Montreal Center
08:57AM 45.9667 -74.6667 238° Southwest 350 403 35,000 960 Climbing Montreal Center
08:58AM 45.9167 -74.7833 238° Southwest 340 391 35,900 480 Climbing Montreal Center
08:59AM 45.8833 -74.9000 248° West 340 391 36,000  Climbing Montreal Center
09:00AM 45.8333 -75.0500 244° Southwest 360 414 36,000  Level Montreal Center
09:01AM 45.7833 -75.1667 238° Southwest 370 426 36,000  Level Montreal Center
09:02AM 45.7500 -75.3167 252° West 390 449 36,000  Level Montreal Center
09:03AM 45.6833 -75.4667 238° Southwest 400 460 36,000  Level Montreal Center
09:04AM 45.6333 -75.6167 245° Southwest 410 472 36,000  Level Montreal Center
09:05AM 45.5833 -75.7500 242° Southwest 410 472 36,000  Level Montreal Center
09:06AM 45.5333 -75.9000 245° Southwest 410 472 36,000  Level Montreal Center
09:07AM 45.4667 -76.0333 235° Southwest 410 472 36,000  Level Montreal Center
09:08AM 45.4167 -76.1833 245° Southwest 410 472 36,000  Level Montreal Center
09:09AM 45.3667 -76.3333 245° Southwest 400 460 36,000  Level Montreal Center
09:10AM 45.3333 -76.4667 250° West 400 460 36,000  Level Montreal Center
09:11AM 45.3000 -76.6333 254° West 400 460 36,000  Level Montreal Center
09:12AM 45.2667 -76.7833 253° West 390 449 36,000  Level Montreal Center
09:13AM 45.2333 -76.9167 250° West 390 449 36,000  Level Montreal Center
09:14AM 45.2000 -77.0667 253° West 390 449 36,000  Level Montreal Center
09:15AM 45.1667 -77.2000 251° West 390 449 36,000  Level Montreal Center
09:16AM 45.1167 -77.3333 242° Southwest 390 449 36,000  Level Toronto Center
09:17AM 45.1000 -77.4833 261° West 390 449 36,000  Level Toronto Center
09:18AM 45.0667 -77.6333 253° West 380 437 36,000  Level Toronto Center
09:19AM 45.0167 -77.7500 239° Southwest 370 426 36,000  Level Toronto Center
09:20AM 44.9833 -77.8833 251° West 360 414 36,000  Level Toronto Center
09:21AM 44.9500 -78.0333 253° West 360 414 36,000  Level Toronto Center
09:22AM 44.9667 -78.1667 280° West 360 414 36,000  Level Toronto Center
09:23AM 44.9833 -78.3167 279° West 360 414 36,000  Level Toronto Center
09:24AM 45.0167 -78.4333 292° West 360 414 36,000  Level Toronto Center
09:25AM 45.0500 -78.5667 290° West 370 426 36,000  Level Toronto Center
09:26AM 45.0833 -78.7167 288° West 360 414 36,000  Level Toronto Center
09:27AM 45.0500 -78.8500 251° West 370 426 36,000  Level Toronto Center
09:28AM 45.0000 -78.9667 239° Southwest 380 437 36,000  Level Toronto Center
09:29AM 44.9333 -79.1167 238° Southwest 380 437 36,000  Level Toronto Center
09:30AM 44.8833 -79.2333 239° Southwest 380 437 36,000  Level Toronto Center
09:31AM 44.8167 -79.3667 235° Southwest 380 437 36,000  Level Toronto Center
09:32AM 44.7667 -79.4833 239° Southwest 380 437 36,000  Level Toronto Center
09:33AM 44.7000 -79.6167 235° Southwest 380 437 36,000  Level Toronto Center
09:34AM 44.6500 -79.7500 242° Southwest 390 449 36,000  Level Toronto Center
09:35AM 44.6000 -79.8667 239° Southwest 390 449 36,000  Level Toronto Center
09:36AM 44.5333 -80.0000 235° Southwest 390 449 36,000  Level Toronto Center
09:37AM 44.4833 -80.1167 239° Southwest 390 449 36,000  Level Toronto Center
09:38AM 44.4167 -80.2667 238° Southwest 390 449 36,000  Level Toronto Center
09:39AM 44.3667 -80.3833 239° Southwest 390 449 36,000  Level Toronto Center
09:40AM 44.3000 -80.5167 235° Southwest 390 449 36,000  Level Toronto Center
09:41AM 44.2500 -80.6333 239° Southwest 390 449 36,000  Level Toronto Center
09:42AM 44.1833 -80.7667 235° Southwest 400 460 36,000  Level Toronto Center
09:43AM 44.1167 -80.9167 238° Southwest 400 460 36,000  Level Toronto Center
09:44AM 44.0500 -81.0167 227° Southwest 400 460 36,000  Level Toronto Center
09:45AM 44.0000 -81.1667 245° Southwest 400 460 36,000  Level Toronto Center
09:46AM 43.9333 -81.3000 235° Southwest 400 460 36,000  Level Toronto Center
09:47AM 43.8667 -81.4167 232° Southwest 400 460 36,000  Level Toronto Center
09:48AM 43.8167 -81.5500 243° Southwest 400 460 36,000  Level Toronto Center
09:49AM 43.7500 -81.6667 232° Southwest 400 460 36,000  Level Toronto Center
09:50AM 43.7000 -81.8000 243° Southwest 400 460 36,000  Level Toronto Center
09:51AM 43.6167 -81.9333 229° Southwest 390 449 36,000  Level Toronto Center
09:52AM 43.5667 -82.0500 239° Southwest 390 449 36,000  Level Toronto Center
09:52AM 43.5439 -82.1297 249° West 396 456 36,000  Level Cleveland Center
09:53AM 43.4839 -82.2539 236° Southwest 396 456 36,000  Level Cleveland Center
09:54AM 43.4300 -82.3642 236° Southwest 396 456 36,000  Level Cleveland Center
09:55AM 43.3944 -82.5003 250° West 379 436 36,000  Level Cleveland Center
09:56AM 43.3667 -82.5667 240° Southwest 370 426 36,000  Level Toronto Center
09:56AM 43.3631 -82.6306 266° West 373 429 36,000  Level Cleveland Center
09:57AM 43.3294 -82.7664 251° West 373 429 36,000 -240 Level Cleveland Center
09:58AM 43.2997 -82.9022 253° West 373 429 35,600 -660 Descending Cleveland Center
09:59AM 43.2658 -83.0350 251° West 373 429 34,700 -960 Descending Cleveland Center
10:00AM 43.2339 -83.1619 251° West 366 421 33,700 -1,020 Descending Cleveland Center
10:01AM 43.2036 -83.2919 252° West 361 415 32,700 -900 Descending Cleveland Center
10:02AM 43.1736 -83.4214 252° West 361 415 32,000 -360 Descending Cleveland Center
10:03AM 43.1433 -83.5453 252° West 356 410 32,000  Level Cleveland Center
10:04AM 43.1131 -83.6661 251° West 356 410 32,000  Level Cleveland Center
10:05AM 43.0825 -83.7897 251° West 351 404 32,000  Level Cleveland Center
10:06AM 43.0519 -83.9131 251° West 351 404 32,000  Level Cleveland Center
10:09AM 42.9747 -84.2233 251° West 354 407 32,000  Level Chicago Center
10:10AM 42.9425 -84.3494 251° West 353 406 32,000  Level Chicago Center
10:11AM 42.9103 -84.4775 251° West 356 410 32,000  Level Chicago Center
10:12AM 42.8814 -84.6064 253° West 355 409 32,000  Level Chicago Center
10:13AM 42.8681 -84.7378 262° West 351 404 32,000  Level Chicago Center
10:14AM 42.8536 -84.8697 262° West 353 406 32,000  Level Chicago Center
10:15AM 42.8378 -85.0264 262° West 349 402 32,000  Level Chicago Center
10:16AM 42.8231 -85.1572 261° West 350 403 32,000  Level Chicago Center
10:17AM 42.8092 -85.2883 262° West 351 404 32,000 -180 Level Chicago Center
10:18AM 42.7942 -85.4189 261° West 349 402 31,700 -1,200 Descending Chicago Center
10:19AM 42.7769 -85.5500 260° West 350 403 29,600 -2,040 Descending Chicago Center
10:20AM 42.7531 -85.6847 256° West 359 413 27,500 -2,040 Descending Chicago Center
10:21AM 42.7278 -85.8186 256° West 364 419 25,500 -2,160 Descending Chicago Center
10:22AM 42.6992 -85.9794 256° West 362 417 23,100 -1,980 Descending Chicago Center
10:23AM 42.6736 -86.1150 256° West 366 421 21,500 -1,500 Descending Chicago Center
10:24AM 42.6492 -86.2506 256° West 368 423 20,100 -1,260 Descending Chicago Center
10:25AM 42.6236 -86.3850 256° West 368 423 19,000 -1,500 Descending Chicago Center
10:26AM 42.5992 -86.5172 256° West 362 417 17,000 -2,220 Descending Chicago Center
10:27AM 42.5753 -86.6386 255° West 338 389 14,500 -2,340 Descending Chicago Center
10:28AM 42.5531 -86.7567 256° West 326 375 12,200 -2,100 Descending Chicago Center
10:29AM 42.5169 -86.8819 249° West 301 346 10,200 -1,020 Descending Chicago Center
10:30AM 42.4878 -86.9917 250° West 308 354 10,100 -300 Descending Chicago Center
10:31AM 42.4600 -87.0872 249° West 273 314 9,700 -540 Descending Chicago Center
10:32AM 42.4353 -87.1803 250° West 263 303 9,000 -360 Descending Chicago Center
10:33AM 42.4111 -87.2703 250° West 256 295 9,000  Level Chicago Center
10:34AM 42.3817 -87.3619 247° West 265 305 9,000  Level Chicago Center
10:36AM 42.3297 -87.4447 230° Southwest 261 300 9,000 -120 Level Chicago Center
10:37AM 42.2869 -87.5186 232° Southwest 254 292 8,800 -660 Descending Chicago Center
10:38AM 42.2381 -87.6089 234° Southwest 249 287 7,700 -1,260 Descending Chicago Center
10:39AM 42.2008 -87.6681 230° Southwest 214 246 6,300 -1,320 Descending Chicago Center
10:40AM 42.1592 -87.7192 222° Southwest 204 235 5,000 -1,200 Descending Chicago Center
10:41AM 42.1164 -87.7658 219° Southwest 201 231 3,900 -1,260 Descending Chicago Center
10:41AM 42.0833 -87.8000 217° Southwest 199 229 3,100 -1,080 Descending Chicago TRACON
10:42AM 42.0500 -87.8333 217° Southwest 154 177 2,400 -840 Descending Chicago TRACON
10:43AM 42.0333 -87.8667 236° Southwest 123 142 1,500 -780 Descending Chicago TRACON
10:44AM 42.0000 -87.8833 200° South 125 144 900 -720 Descending Chicago TRACON
10:46AM 41.9817 -87.9067 206° Southwest  Level Estimated